Time;durP1;ratioP1;P1;durP2;ratioP2;P2;SDS_P1;SDS_P2;PMS_P1;PMS_P2;Temp;Humidity;BMP_temperature;BMP_pressure;BME280_temperature;BME280_humidity;BME280_pressure;Samples;Min_cycle;Max_cycle;Signal;HPM_P1;HPM_P2
2021/05/18 00:01:44;;;;;;;;;;;8.60;99.90;;;;;;5097627;28;20421;-72
2021/05/18 00:04:11;;;;;;;;;;;8.50;99.90;;;;;;5097567;28;19932;-72
2021/05/18 00:06:37;;;;;;;;;;;8.50;99.90;;;;;;5097582;28;19934;-72
2021/05/18 00:11:50;;;;;;;;;;;8.50;99.90;;;;;;5097521;28;19989;-72
2021/05/18 00:14:17;;;;;;;;;;;8.40;99.90;;;;;;5097567;28;19985;-72
2021/05/18 00:16:43;;;;;;;;;;;8.40;99.90;;;;;;5097404;28;19935;-72
2021/05/18 00:19:10;;;;;;;;;;;8.40;99.90;;;;;;5097346;28;19993;-72
2021/05/18 00:21:36;;;;;;;;;;;8.30;99.90;;;;;;5097314;28;19993;-72
2021/05/18 00:24:03;;;;;;;;;;;8.30;99.90;;;;;;5096547;28;19923;-72
2021/05/18 00:26:30;;;;;;;;;;;8.30;99.90;;;;;;5097136;28;20338;-72
2021/05/18 00:28:56;;;;;;;;;;;8.30;99.90;;;;;;5097124;28;19931;-72
2021/05/18 00:31:22;;;;;;;;;;;8.30;99.90;;;;;;5097213;28;19924;-72
2021/05/18 00:33:49;;;;;;;;;;;8.30;99.90;;;;;;5097069;28;19936;-72
2021/05/18 00:36:15;;;;;;;;;;;8.30;99.90;;;;;;5096985;28;20223;-72
2021/05/18 00:38:42;;;;;;;;;;;8.30;99.90;;;;;;5096838;28;19924;-72
2021/05/18 00:41:08;;;;;;;;;;;8.30;99.90;;;;;;5097037;28;19928;-72
2021/05/18 00:43:36;;;;;;;;;;;8.30;99.90;;;;;;5096741;28;19924;-72
2021/05/18 00:46:02;;;;;;;;;;;8.30;99.90;;;;;;5096693;28;20337;-72
2021/05/18 00:48:29;;;;;;;;;;;8.30;99.90;;;;;;5096677;28;20353;-72
2021/05/18 00:50:55;;;;;;;;;;;8.30;99.90;;;;;;5096677;28;19931;-72
2021/05/18 00:53:22;;;;;;;;;;;8.30;99.90;;;;;;5096596;28;19932;-72
2021/05/18 00:55:51;;;;;;;;;;;8.20;99.90;;;;;;5096581;28;19988;-72
2021/05/18 00:58:26;;;;;;;;;;;8.20;99.90;;;;;;5096633;28;19927;-72
2021/05/18 01:00:53;;;;;;;;;;;8.20;99.90;;;;;;5096552;28;20346;-72
2021/05/18 01:03:20;;;;;;;;;;;8.20;99.90;;;;;;5096375;28;19973;-72
2021/05/18 01:08:30;;;;;;;;;;;8.10;99.90;;;;;;5096435;28;19935;-72
2021/05/18 01:10:57;;;;;;;;;;;8.10;99.90;;;;;;5096428;28;19931;-72
2021/05/18 01:13:23;;;;;;;;;;;8.10;99.90;;;;;;5096380;28;19934;-72
2021/05/18 01:15:49;;;;;;;;;;;8.10;99.90;;;;;;5096227;28;19976;-72
2021/05/18 01:18:16;;;;;;;;;;;8.10;99.90;;;;;;5096117;28;19924;-72
2021/05/18 01:20:44;;;;;;;;;;;8.10;99.90;;;;;;5095989;28;19928;-72
2021/05/18 01:23:10;;;;;;;;;;;8.10;99.90;;;;;;5095931;28;19936;-72
2021/05/18 01:25:36;;;;;;;;;;;8.10;99.90;;;;;;5095901;28;19931;-72
2021/05/18 01:28:03;;;;;;;;;;;8.10;99.90;;;;;;5096076;28;19924;-72
2021/05/18 01:30:29;;;;;;;;;;;8.10;99.90;;;;;;5096060;28;19924;-72
2021/05/18 01:32:55;;;;;;;;;;;8.10;99.90;;;;;;5095915;28;20254;-72
2021/05/18 01:35:22;;;;;;;;;;;8.10;99.90;;;;;;5095474;28;19924;-72
2021/05/18 01:37:49;;;;;;;;;;;8.10;99.90;;;;;;5095181;28;19924;-72
2021/05/18 01:42:58;;;;;;;;;;;8.00;99.90;;;;;;5095730;28;19931;-72
2021/05/18 01:45:25;;;;;;;;;;;8.00;99.90;;;;;;5095659;28;20030;-72
2021/05/18 01:47:53;;;;;;;;;;;8.00;99.90;;;;;;5095540;28;19928;-72
2021/05/18 01:50:19;;;;;;;;;;;8.00;99.90;;;;;;5095780;28;19931;-72
2021/05/18 01:52:46;;;;;;;;;;;8.00;99.90;;;;;;5095710;28;20258;-72
2021/05/18 01:55:15;;;;;;;;;;;8.00;99.90;;;;;;5095459;28;20345;-72
2021/05/18 01:57:43;;;;;;;;;;;8.00;99.90;;;;;;5095392;28;20242;-72
2021/05/18 02:00:10;;;;;;;;;;;8.00;99.90;;;;;;5095324;28;19924;-72
2021/05/18 02:02:36;;;;;;;;;;;8.00;99.90;;;;;;5095419;28;19935;-72
2021/05/18 02:05:04;;;;;;;;;;;8.00;99.90;;;;;;5095564;28;19924;-72
2021/05/18 02:07:31;;;;;;;;;;;8.00;99.90;;;;;;5095296;28;19924;-72
2021/05/18 02:09:58;;;;;;;;;;;8.00;99.90;;;;;;5095221;28;20376;-72
2021/05/18 02:12:25;;;;;;;;;;;8.00;99.90;;;;;;5095261;28;19942;-72
2021/05/18 02:14:56;;;;;;;;;;;8.00;99.90;;;;;;5095094;28;19928;-72
2021/05/18 02:17:29;;;;;;;;;;;8.00;99.90;;;;;;5095167;28;19932;-72
2021/05/18 02:20:09;;;;;;;;;;;7.90;99.90;;;;;;5095373;28;19924;-72
2021/05/18 02:25:20;;;;;;;;;;;7.90;99.90;;;;;;5094999;28;20004;-72
2021/05/18 02:27:47;;;;;;;;;;;7.80;99.90;;;;;;5095006;28;19973;-72
2021/05/18 02:30:14;;;;;;;;;;;7.80;99.90;;;;;;5094966;28;19924;-72
2021/05/18 02:32:40;;;;;;;;;;;7.70;99.90;;;;;;5095140;28;20304;-72
2021/05/18 02:35:07;;;;;;;;;;;7.70;99.90;;;;;;5095016;28;19953;-72
2021/05/18 02:37:37;;;;;;;;;;;7.60;99.90;;;;;;5095253;28;19932;-72
2021/05/18 02:40:03;;;;;;;;;;;7.60;99.90;;;;;;5094860;28;19924;-72
2021/05/18 02:42:29;;;;;;;;;;;7.50;99.90;;;;;;5094885;28;19924;-72
2021/05/18 02:45:02;;;;;;;;;;;7.50;99.90;;;;;;5094942;28;20003;-72
2021/05/18 02:50:13;;;;;;;;;;;7.50;99.90;;;;;;5099110;28;20375;-72
2021/05/18 02:52:40;;;;;;;;;;;7.40;99.90;;;;;;5098983;28;20314;-72
2021/05/18 02:55:08;;;;;;;;;;;7.40;99.90;;;;;;5099159;28;19951;-72
2021/05/18 02:57:35;;;;;;;;;;;7.40;99.90;;;;;;5098938;28;20295;-72
2021/05/18 03:00:03;;;;;;;;;;;7.50;99.90;;;;;;5098762;28;19932;-72
2021/05/18 03:02:30;;;;;;;;;;;7.50;99.90;;;;;;5098857;28;19932;-72
2021/05/18 03:04:56;;;;;;;;;;;7.60;99.90;;;;;;5098817;28;19935;-72
2021/05/18 03:07:22;;;;;;;;;;;7.60;99.90;;;;;;5099014;28;19938;-72
2021/05/18 03:09:49;;;;;;;;;;;7.70;99.90;;;;;;5098817;28;19924;-72
2021/05/18 03:12:15;;;;;;;;;;;7.70;99.90;;;;;;5098553;28;20300;-72
2021/05/18 03:14:41;;;;;;;;;;;7.70;99.90;;;;;;5098476;28;20365;-72
2021/05/18 03:17:09;;;;;;;;;;;7.70;99.90;;;;;;5098385;28;19924;-72
2021/05/18 03:19:35;;;;;;;;;;;7.70;99.90;;;;;;5098341;28;20018;-72
2021/05/18 03:22:01;;;;;;;;;;;7.70;99.90;;;;;;5098385;28;19940;-72
2021/05/18 03:24:27;;;;;;;;;;;7.80;99.90;;;;;;5098398;28;19924;-72
2021/05/18 03:26:54;;;;;;;;;;;7.80;99.90;;;;;;5098556;28;19935;-72
2021/05/18 03:29:22;;;;;;;;;;;7.80;99.90;;;;;;5098364;28;19924;-72
2021/05/18 03:34:35;;;;;;;;;;;7.90;99.90;;;;;;5098265;28;19938;-72
2021/05/18 03:37:04;;;;;;;;;;;7.90;99.90;;;;;;5098030;28;20372;-72
2021/05/18 03:39:31;;;;;;;;;;;8.00;99.90;;;;;;5098200;28;19928;-72
2021/05/18 03:42:02;;;;;;;;;;;8.00;99.90;;;;;;5098144;28;19924;-72
2021/05/18 03:44:43;;;;;;;;;;;8.00;99.90;;;;;;5098198;28;19924;-72
2021/05/18 03:52:44;;;;;;;;;;;8.10;99.90;;;;;;5098134;28;19931;-72
2021/05/18 04:03:24;;;;;;;;;;;8.20;99.90;;;;;;5097925;28;19966;-72
2021/05/18 04:16:55;;;;;;;;;;;8.30;99.90;;;;;;5097524;28;19930;-72
2021/05/18 04:19:25;;;;;;;;;;;8.40;99.90;;;;;;5097457;28;19934;-72
2021/05/18 04:22:04;;;;;;;;;;;8.40;99.90;;;;;;5097387;28;19932;-72
2021/05/18 04:38:50;;;;;;;;;;;8.50;99.90;;;;;;5096947;28;20329;-72
2021/05/18 04:52:26;;;;;;;;;;;8.60;99.90;;;;;;5096730;28;20405;-72
2021/05/18 05:00:24;;;;;;;;;;;8.70;99.90;;;;;;5096946;28;19931;-72
2021/05/18 05:03:03;;;;;;;;;;;8.70;99.90;;;;;;5096651;28;19924;-72
2021/05/18 05:08:17;;;;;;;;;;;8.70;99.90;;;;;;5096497;28;19980;-72
2021/05/18 05:16:25;;;;;;;;;;;8.80;99.90;;;;;;5054493;28;19943;-72
2021/05/18 05:18:51;;;;;;;;;;;8.80;99.90;;;;;;5054286;28;19928;-72
2021/05/18 05:21:19;;;;;;;;;;;8.80;99.90;;;;;;5054261;28;20023;-72
2021/05/18 05:23:46;;;;;;;;;;;8.80;99.90;;;;;;5054196;28;19929;-72
2021/05/18 05:26:13;;;;;;;;;;;8.70;99.90;;;;;;5054001;28;20316;-72
2021/05/18 05:28:40;;;;;;;;;;;8.70;99.90;;;;;;5054081;28;19979;-72
2021/05/18 05:31:06;;;;;;;;;;;8.70;99.90;;;;;;5054077;28;19924;-72
2021/05/18 05:33:32;;;;;;;;;;;8.70;99.90;;;;;;5053991;28;19932;-72
2021/05/18 05:35:59;;;;;;;;;;;8.80;99.90;;;;;;5053804;28;19924;-72
2021/05/18 05:38:26;;;;;;;;;;;8.80;99.90;;;;;;5053953;28;19925;-72
2021/05/18 05:40:52;;;;;;;;;;;8.80;99.90;;;;;;5054042;28;19924;-72
2021/05/18 05:43:19;;;;;;;;;;;8.90;99.90;;;;;;5053840;28;19966;-72
2021/05/18 05:45:46;;;;;;;;;;;8.90;99.90;;;;;;5053843;28;19924;-72
2021/05/18 05:48:12;;;;;;;;;;;8.90;99.90;;;;;;5083151;28;19931;-72
2021/05/18 05:50:38;;;;;;;;;;;8.90;99.90;;;;;;5095803;28;19924;-72
2021/05/18 05:53:05;;;;;;;;;;;9.00;99.90;;;;;;5095562;28;19924;-72
2021/05/18 05:55:31;;;;;;;;;;;9.00;99.90;;;;;;5095457;28;19928;-72
2021/05/18 05:57:57;;;;;;;;;;;9.10;99.90;;;;;;5095352;28;19924;-72
2021/05/18 06:00:25;;;;;;;;;;;9.10;99.90;;;;;;5095557;28;19924;-72
2021/05/18 06:02:51;;;;;;;;;;;9.30;99.90;;;;;;5095300;28;19938;-72
2021/05/18 06:05:17;;;;;;;;;;;9.40;99.90;;;;;;5095554;28;19932;-72
2021/05/18 06:07:44;;;;;;;;;;;9.50;99.90;;;;;;5095467;28;19924;-72
2021/05/18 06:10:13;;;;;;;;;;;9.70;99.90;;;;;;5095414;28;19923;-72
2021/05/18 06:12:57;;;;;;;;;;;9.80;99.90;;;;;;5095369;28;20018;-72
2021/05/18 06:37:46;;;;;;;;;;;11.30;99.90;;;;;;5032031;28;19925;-72
2021/05/18 06:43:08;;;;;;;;;;;14.10;99.90;;;;;;5033373;28;20135;-72
2021/05/18 06:45:58;;;;;;;;;;;16.20;99.90;;;;;;5033160;28;20335;-71
2021/05/18 06:48:25;;;;;;;;;;;17.90;99.90;;;;;;5027354;28;19921;-72
2021/05/18 06:50:51;;;;;;;;;;;17.80;99.90;;;;;;5013339;28;19947;-72
2021/05/18 06:53:17;;;;;;;;;;;17.20;99.90;;;;;;5066330;28;20415;-73
2021/05/18 06:55:44;;;;;;;0.00;0.00;;;16.80;99.90;;;;;;5074588;28;19920;-73
2021/05/18 06:58:13;;;;;;;1.55;0.32;;;18.10;99.90;;;;;;5074073;28;20048;-73
2021/05/18 07:00:42;;;;;;;0.47;0.30;;;20.40;99.90;;;;;;5074181;28;20059;-73
2021/05/18 07:03:11;;;;;;;1.02;0.40;;;22.10;99.90;;;;;;5074254;28;20056;-73
2021/05/18 07:05:42;;;;;;;0.73;0.40;;;21.80;99.90;;;;;;5074063;28;20048;-73
2021/05/18 07:11:02;;;;;;;0.52;0.28;;;19.20;99.90;;;;;;5133534;27;20337;-74
2021/05/18 07:13:28;;;;;;;0.90;0.50;;;19.70;99.90;;;;;;5132991;27;20071;-74
2021/05/18 07:15:55;;;;;;;1.33;0.38;;;19.70;99.90;;;;;;5133090;27;20090;-74
2021/05/18 07:18:22;;;;;;;1.52;0.40;;;20.90;99.90;;;;;;5132887;27;20061;-75
2021/05/18 07:20:48;;;;;;;1.05;0.30;;;21.80;99.90;;;;;;5132910;27;20043;-74
2021/05/18 07:23:17;;;;;;;0.47;0.40;;;23.80;99.80;;;;;;5132986;27;20052;-75
2021/05/18 07:25:43;;;;;;;2.25;0.40;;;25.20;90.00;;;;;;5133015;27;20154;-75
2021/05/18 07:28:11;;;;;;;1.52;0.40;;;25.90;65.50;;;;;;5132788;27;20043;-73
2021/05/18 07:30:38;;;;;;;0.77;0.45;;;25.40;68.00;;;;;;5132556;27;20125;-71
2021/05/18 07:33:05;;;;;;;1.38;0.50;;;23.90;84.40;;;;;;5132203;27;20450;-71
2021/05/18 07:35:32;;;;;;;0.80;0.38;;;23.00;95.20;;;;;;5132595;27;20063;-71
2021/05/18 07:37:58;;;;;;;0.50;0.22;;;23.00;88.30;;;;;;5132549;27;20096;-71
2021/05/18 07:40:25;;;;;;;1.13;0.30;;;22.50;72.30;;;;;;5132432;27;20366;-71
2021/05/18 07:42:52;;;;;;;0.30;0.20;;;21.00;96.10;;;;;;5132545;27;20051;-70
2021/05/18 07:45:21;;;;;;;1.30;0.73;;;19.40;97.70;;;;;;5132365;27;20047;-70
2021/05/18 07:47:47;;;;;;;0.47;0.32;;;18.10;99.90;;;;;;5132368;27;20057;-70
2021/05/18 07:50:16;;;;;;;4.13;0.73;;;16.90;99.90;;;;;;5132424;27;20077;-70
2021/05/18 08:01:10;;;;;;;0.15;0.15;;;17.50;99.90;;;;;;5132653;28;20108;-74
2021/05/18 08:06:20;;;;;;;2.17;0.28;;;24.40;83.50;;;;;;5132069;28;20378;-74
2021/05/18 08:08:47;;;;;;;1.85;0.30;;;24.80;62.90;;;;;;5131618;27;20052;-74
2021/05/18 08:11:14;;;;;;;0.68;0.20;;;24.00;61.40;;;;;;5132123;27;20401;-74
2021/05/18 08:13:40;;;;;;;0.22;0.20;;;24.00;64.30;;;;;;5131826;27;20463;-74
2021/05/18 08:19:17;;;;;;;0.75;0.30;;;21.40;80.50;;;;;;5105708;27;20044;-74
2021/05/18 08:47:31;;;;;;;;;;;14.10;99.90;;;;;;5055348;28;19990;-74
2021/05/18 08:56:06;;;;;;;;;;;14.30;99.90;;;;;;5053515;28;19974;-74
2021/05/18 10:27:39;;;;;;;;;;;13.80;98.40;;;;;;5079690;28;19915;-73
2021/05/18 10:35:27;;;;;;;;;;;13.90;99.90;;;;;;5094021;28;19920;-74
2021/05/18 10:37:57;;;;;;;;;;;13.90;99.90;;;;;;5094257;28;19919;-73
2021/05/18 10:40:27;;;;;;;;;;;14.10;99.90;;;;;;5095580;28;19959;-74
2021/05/18 10:43:21;;;;;;;;;;;14.10;99.90;;;;;;5095481;28;19931;-74
2021/05/18 10:46:07;;;;;;;;;;;14.10;99.90;;;;;;5033524;28;19932;-73
2021/05/18 10:48:55;;;;;;;;;;;14.00;99.90;;;;;;5033475;28;20312;-74
2021/05/18 10:51:22;;;;;;;;;;;13.90;99.90;;;;;;5013944;28;20408;-74
2021/05/18 10:54:03;;;;;;;;;;;13.90;99.40;;;;;;5013821;28;19948;-74
2021/05/18 10:56:30;;;;;;;;;;;13.90;99.90;;;;;;5013889;28;19922;-74
2021/05/18 10:58:56;;;;;;;;;;;13.90;99.90;;;;;;5013809;28;19922;-74
2021/05/18 11:01:22;;;;;;;;;;;13.90;99.90;;;;;;5013756;28;20372;-74
2021/05/18 11:03:49;;;;;;;;;;;13.90;99.90;;;;;;5013680;28;20379;-72
2021/05/18 11:06:16;;;;;;;;;;;13.90;98.50;;;;;;5013653;28;19932;-73
2021/05/18 11:08:42;;;;;;;;;;;13.90;95.60;;;;;;5013376;28;19922;-72
2021/05/18 11:11:09;;;;;;;;;;;14.00;99.30;;;;;;5013627;28;19975;-73
2021/05/18 11:13:35;;;;;;;;;;;14.00;99.90;;;;;;5011816;28;20019;-72
2021/05/18 11:16:01;;;;;;;;;;;14.00;99.90;;;;;;5013527;28;19921;-72
2021/05/18 11:18:30;;;;;;;;;;;14.10;99.90;;;;;;5013212;28;19932;-72
2021/05/18 11:20:59;;;;;;;;;;;14.30;99.90;;;;;;5031093;28;19928;-73
2021/05/18 11:23:27;;;;;;;;;;;14.50;95.60;;;;;;5074086;28;19931;-72
2021/05/18 11:25:54;;;;;;;;;;;14.70;95.50;;;;;;5074828;28;20374;-79
2021/05/18 11:28:22;;;;;;;;;;;14.70;95.30;;;;;;5074790;28;19982;-72
2021/05/18 11:30:48;;;;;;;;;;;14.70;92.90;;;;;;5074549;28;19921;-72
2021/05/18 11:33:15;;;;;;;;;;;14.60;97.40;;;;;;5074695;28;20268;-72
2021/05/18 11:35:41;;;;;;;;;;;14.60;98.70;;;;;;5074744;28;19928;-73
2021/05/18 11:38:10;;;;;;;;;;;14.50;94.50;;;;;;5074846;28;19986;-73
2021/05/18 11:40:41;;;;;;;;;;;14.50;92.70;;;;;;5074789;28;19921;-73
2021/05/18 11:43:20;;;;;;;;;;;14.60;94.20;;;;;;5074638;28;19921;-73
2021/05/18 11:45:47;;;;;;;;;;;14.60;99.20;;;;;;5074524;28;20382;-72
2021/05/18 11:48:14;;;;;;;;;;;14.80;97.10;;;;;;5074487;28;19967;-72
2021/05/18 11:50:40;;;;;;;;;;;14.90;98.50;;;;;;5074427;28;19921;-72
2021/05/18 11:53:06;;;;;;;;;;;14.90;92.50;;;;;;5074656;28;19920;-72
2021/05/18 11:55:33;;;;;;;;;;;14.80;94.30;;;;;;5074548;28;20317;-72
2021/05/18 11:58:00;;;;;;;;;;;14.60;93.80;;;;;;5078248;28;19920;-72
2021/05/18 12:00:28;;;;;;;;;;;14.50;97.70;;;;;;5078197;28;20415;-72
2021/05/18 12:03:04;;;;;;;;;;;14.50;96.50;;;;;;5078202;28;19942;-72
2021/05/18 12:05:30;;;;;;;;;;;14.70;93.10;;;;;;5078316;28;19932;-72
2021/05/18 12:07:57;;;;;;;;;;;14.90;91.10;;;;;;5078154;28;19920;-72
2021/05/18 12:10:30;;;;;;;;;;;15.00;93.70;;;;;;5077728;28;19920;-72
2021/05/18 12:12:56;;;;;;;;;;;15.10;95.60;;;;;;5077947;28;19921;-72
2021/05/18 12:15:23;;;;;;;;;;;15.20;95.00;;;;;;5078043;28;20240;-72
2021/05/18 12:17:52;;;;;;;;;;;15.10;94.50;;;;;;5077863;28;19921;-72
2021/05/18 12:20:18;;;;;;;;;;;14.90;91.30;;;;;;5077952;28;19931;-72
2021/05/18 12:22:45;;;;;;;;;;;14.80;89.70;;;;;;5077790;28;19928;-72
2021/05/18 12:25:12;;;;;;;;;;;14.80;87.20;;;;;;5077738;28;19920;-72
2021/05/18 12:27:44;;;;;;;;;;;14.70;91.40;;;;;;5077661;28;19924;-72
2021/05/18 12:30:11;;;;;;;;;;;14.60;91.90;;;;;;5077646;28;20337;-72
2021/05/18 12:32:46;;;;;;;;;;;14.60;92.40;;;;;;5077598;28;20015;-72
2021/05/18 12:35:16;;;;;;;;;;;14.60;93.40;;;;;;5077742;28;20311;-72
2021/05/18 12:37:43;;;;;;;;;;;14.60;92.00;;;;;;5077655;28;19920;-72
2021/05/18 12:40:13;;;;;;;;;;;14.60;93.60;;;;;;5077340;28;19920;-72
2021/05/18 12:42:40;;;;;;;;;;;14.70;87.90;;;;;;5077404;28;19951;-72
2021/05/18 12:45:07;;;;;;;;;;;14.70;91.50;;;;;;5077630;28;19931;-69
2021/05/18 12:47:35;;;;;;;;;;;14.80;91.90;;;;;;5077515;28;19932;-72
2021/05/18 12:50:02;;;;;;;;;;;14.80;90.80;;;;;;5077327;28;19930;-73
2021/05/18 12:52:34;;;;;;;;;;;14.80;88.20;;;;;;5077266;28;20309;-73
2021/05/18 12:55:00;;;;;;;;;;;14.80;90.50;;;;;;5077505;28;19920;-71
2021/05/18 12:57:28;;;;;;;;;;;14.70;89.00;;;;;;5077406;28;19920;-72
2021/05/18 13:00:09;;;;;;;;;;;14.70;81.30;;;;;;5077372;28;19924;-72
2021/05/18 13:02:37;;;;;;;;;;;14.70;81.40;;;;;;5077179;28;19967;-72
2021/05/18 13:05:05;;;;;;;;;;;14.80;81.20;;;;;;5076967;28;19931;-71
2021/05/18 13:07:32;;;;;;;;;;;14.90;89.20;;;;;;5076916;28;19921;-72
2021/05/18 13:10:08;;;;;;;;;;;15.10;89.50;;;;;;5076554;28;19931;-73
2021/05/18 13:12:34;;;;;;;;;;;15.20;88.20;;;;;;5076883;28;20382;-73
2021/05/18 13:15:01;;;;;;;;;;;15.40;84.80;;;;;;5076922;28;19925;-74
2021/05/18 13:17:27;;;;;;;;;;;15.50;90.10;;;;;;5076891;28;19920;-72
2021/05/18 13:20:00;;;;;;;;;;;15.50;84.30;;;;;;5076801;28;20111;-77
2021/05/18 13:22:31;;;;;;;;;;;15.50;80.20;;;;;;5076842;28;19934;-78
2021/05/18 13:27:57;;;;;;;;;;;15.30;87.80;;;;;;5076748;28;19927;-77
2021/05/18 13:30:24;;;;;;;;;;;15.30;88.50;;;;;;5076566;28;19921;-77
2021/05/18 13:32:50;;;;;;;;;;;15.40;82.10;;;;;;5076808;28;19924;-77
2021/05/18 13:35:17;;;;;;;;;;;15.30;84.00;;;;;;5076694;28;19944;-77
2021/05/18 13:37:44;;;;;;;;;;;15.30;87.70;;;;;;5076716;28;19921;-77
2021/05/18 13:40:11;;;;;;;;;;;15.30;86.10;;;;;;5076786;28;20343;-79
2021/05/18 13:42:37;;;;;;;;;;;15.20;85.50;;;;;;5076262;28;19921;-77
2021/05/18 13:45:04;;;;;;;;;;;15.10;84.40;;;;;;5076192;28;19935;-76
2021/05/18 13:47:30;;;;;;;;;;;15.10;90.90;;;;;;5076207;28;19924;-78
2021/05/18 13:49:57;;;;;;;;;;;15.00;94.60;;;;;;5076117;28;19920;-77
2021/05/18 13:52:23;;;;;;;;;;;14.90;91.30;;;;;;5075815;28;20344;-77
2021/05/18 13:54:51;;;;;;;;;;;14.90;92.30;;;;;;5076003;28;19920;-78
2021/05/18 13:57:17;;;;;;;;;;;14.90;94.00;;;;;;5076001;28;19924;-77
2021/05/18 13:59:43;;;;;;;;;;;15.00;93.90;;;;;;5075658;28;19920;-77
2021/05/18 14:02:09;;;;;;;;;;;15.10;92.20;;;;;;5075851;28;19920;-77
2021/05/18 14:04:36;;;;;;;;;;;15.30;91.70;;;;;;5076071;28;19920;-77
2021/05/18 14:07:23;;;;;;;;;;;15.40;93.40;;;;;;5075999;28;20264;-78
2021/05/18 14:09:50;;;;;;;;;;;15.40;85.30;;;;;;5075033;28;20011;-78
2021/05/18 14:12:17;;;;;;;;;;;15.30;87.30;;;;;;5075806;28;19934;-77
2021/05/18 14:14:43;;;;;;;;;;;15.20;90.50;;;;;;5075923;28;19931;-78
2021/05/18 14:17:09;;;;;;;;;;;15.10;90.90;;;;;;5075832;28;19921;-78
2021/05/18 14:19:36;;;;;;;;;;;15.10;91.50;;;;;;5075296;28;20260;-77
2021/05/18 14:22:02;;;;;;;;;;;15.10;94.70;;;;;;5075555;28;20329;-77
2021/05/18 14:24:38;;;;;;;;;;;15.20;99.90;;;;;;5075551;28;20489;-78
2021/05/18 14:27:08;;;;;;;;;;;15.00;99.90;;;;;;5075732;28;20315;-77
2021/05/18 14:29:35;;;;;;;;;;;15.10;99.90;;;;;;5075965;28;20000;-77
2021/05/18 14:32:01;;;;;;;;;;;15.00;99.90;;;;;;5075584;28;19920;-78
2021/05/18 14:34:28;;;;;;;;;;;15.00;99.90;;;;;;5075521;28;19920;-78
2021/05/18 14:36:54;;;;;;;;;;;15.00;99.90;;;;;;5075335;28;19972;-79
2021/05/18 14:39:24;;;;;;;;;;;14.90;99.90;;;;;;5075324;28;19947;-80
2021/05/18 14:44:35;;;;;;;;;;;14.70;99.90;;;;;;5075378;28;19989;-76
2021/05/18 14:47:05;;;;;;;;;;;14.60;99.90;;;;;;5075359;28;19974;-79
2021/05/18 14:55:06;;;;;;;;;;;14.40;99.90;;;;;;5075759;28;19926;-76
2021/05/18 14:57:32;;;;;;;;;;;14.30;99.90;;;;;;5075242;28;19972;-76
2021/05/18 15:00:00;;;;;;;;;;;14.40;99.90;;;;;;5074872;28;19931;-73
2021/05/18 15:02:26;;;;;;;;;;;14.40;99.90;;;;;;5075032;28;20027;-76
2021/05/18 15:04:52;;;;;;;;;;;14.40;99.90;;;;;;5074379;28;19924;-73
2021/05/18 15:07:19;;;;;;;;;;;15.70;99.90;;;;;;5074989;28;20241;-74
2021/05/18 15:09:45;;;;;;;;;;;14.50;99.90;;;;;;5074405;28;20328;-73
2021/05/18 15:12:11;;;;;;;;;;;14.60;99.90;;;;;;5074579;28;19920;-74
2021/05/18 15:14:38;;;;;;;;;;;14.60;99.90;;;;;;5074903;28;20336;-73
2021/05/18 15:17:05;;;;;;;;;;;14.60;99.90;;;;;;5075145;28;19954;-73
2021/05/18 15:19:32;;;;;;;;;;;14.60;99.90;;;;;;5074822;28;19920;-73
2021/05/18 15:21:59;;;;;;;;;;;14.50;99.90;;;;;;5075132;28;19921;-75
2021/05/18 15:24:25;;;;;;;;;;;14.60;99.90;;;;;;5074820;28;19931;-75
2021/05/18 15:26:52;;;;;;;;;;;14.60;99.90;;;;;;5074855;28;19920;-75
2021/05/18 15:29:20;;;;;;;;;;;14.70;99.90;;;;;;5074498;28;19920;-75
2021/05/18 15:31:47;;;;;;;;;;;14.80;99.90;;;;;;5077205;28;20322;-75
2021/05/18 15:34:14;;;;;;;;;;;14.80;99.90;;;;;;5078972;28;19920;-74
2021/05/18 15:36:40;;;;;;;;;;;14.90;99.90;;;;;;5078764;28;19928;-75
2021/05/18 15:39:07;;;;;;;;;;;15.00;99.90;;;;;;5078796;28;19921;-74
2021/05/18 15:41:33;;;;;;;;;;;15.00;99.90;;;;;;5078893;28;19920;-74
2021/05/18 15:44:02;;;;;;;;;;;14.90;99.90;;;;;;5078533;28;20340;-74
2021/05/18 15:46:28;;;;;;;;;;;14.90;99.90;;;;;;5078653;28;19970;-74
2021/05/18 15:48:55;;;;;;;;;;;14.90;99.90;;;;;;5078458;28;19924;-75
2021/05/18 15:51:22;;;;;;;;;;;14.90;99.90;;;;;;5078319;28;19920;-74
2021/05/18 15:53:48;;;;;;;;;;;14.80;99.90;;;;;;5078393;28;20024;-74
2021/05/18 15:56:15;;;;;;;;;;;14.70;99.90;;;;;;5078241;28;19925;-75
2021/05/18 15:58:41;;;;;;;;;;;14.70;99.90;;;;;;5078191;28;19920;-74
2021/05/18 16:01:07;;;;;;;;;;;14.60;99.90;;;;;;5078423;28;19954;-75
2021/05/18 16:03:34;;;;;;;;;;;14.60;99.90;;;;;;5077766;28;20303;-75
2021/05/18 16:06:03;;;;;;;;;;;14.70;99.90;;;;;;5077993;28;19920;-81
2021/05/18 16:11:14;;;;;;;;;;;14.80;99.90;;;;;;5078034;28;20374;-81
2021/05/18 16:13:41;;;;;;;;;;;14.90;99.90;;;;;;5078071;28;19920;-80
2021/05/18 16:16:08;;;;;;;;;;;14.90;99.90;;;;;;5077968;28;19920;-82
2021/05/18 16:18:34;;;;;;;;;;;14.90;99.90;;;;;;5078041;28;19920;-80
2021/05/18 16:21:00;;;;;;;;;;;14.80;99.90;;;;;;5078090;28;19928;-81
2021/05/18 16:23:27;;;;;;;;;;;14.70;99.90;;;;;;5077922;28;19920;-81
2021/05/18 16:25:55;;;;;;;;;;;14.80;99.90;;;;;;5077705;28;19973;-80
2021/05/18 16:28:21;;;;;;;;;;;14.80;99.90;;;;;;5097144;28;19920;-81
2021/05/18 16:30:48;;;;;;;;;;;14.90;99.90;;;;;;5097953;28;19924;-80
2021/05/18 16:33:14;;;;;;;;;;;14.90;99.90;;;;;;5098047;28;19931;-81
2021/05/18 16:35:40;;;;;;;;;;;14.90;99.90;;;;;;5097898;28;19930;-79
2021/05/18 16:38:07;;;;;;;;;;;15.00;99.90;;;;;;5097934;28;19927;-80
2021/05/18 16:40:33;;;;;;;;;;;14.90;99.90;;;;;;5098122;28;19920;-82
2021/05/18 16:43:00;;;;;;;;;;;14.90;99.90;;;;;;5097473;28;19920;-82
2021/05/18 16:45:27;;;;;;;;;;;14.90;99.90;;;;;;5098090;28;19926;-79
2021/05/18 16:47:53;;;;;;;;;;;14.80;99.40;;;;;;5097790;28;20263;-80
2021/05/18 16:50:20;;;;;;;;;;;14.70;99.90;;;;;;5097495;28;19927;-78
2021/05/18 16:52:46;;;;;;;;;;;14.70;98.80;;;;;;5097538;28;19920;-81
2021/05/18 16:55:13;;;;;;;;;;;14.70;99.20;;;;;;5097620;28;19920;-80
2021/05/18 16:57:39;;;;;;;;;;;14.70;96.50;;;;;;5097715;28;19928;-81
2021/05/18 17:00:07;;;;;;;;;;;14.70;98.80;;;;;;5097363;28;20404;-81
2021/05/18 17:02:34;;;;;;;;;;;14.70;99.90;;;;;;5097277;28;19931;-79
2021/05/18 17:05:00;;;;;;;;;;;14.80;99.90;;;;;;5097310;28;19926;-80
2021/05/18 17:07:26;;;;;;;;;;;14.90;99.90;;;;;;5097010;28;19920;-80
2021/05/18 17:09:53;;;;;;;;;;;14.90;98.00;;;;;;5096852;28;19931;-81
2021/05/18 17:12:19;;;;;;;;;;;15.00;98.70;;;;;;5097106;28;20323;-79
2021/05/18 17:14:46;;;;;;;;;;;15.00;96.90;;;;;;5097293;28;20362;-79
2021/05/18 17:17:14;;;;;;;;;;;15.00;98.20;;;;;;5097278;28;19920;-80
2021/05/18 17:19:40;;;;;;;;;;;14.90;94.90;;;;;;5097121;28;19962;-82
2021/05/18 17:22:06;;;;;;;;;;;14.80;99.40;;;;;;5097010;28;19927;-81
2021/05/18 17:24:33;;;;;;;;;;;14.70;99.20;;;;;;5097157;28;19928;-83
2021/05/18 17:26:59;;;;;;;;;;;14.60;99.90;;;;;;5096872;28;19919;-81
2021/05/18 17:29:25;;;;;;;;;;;14.50;99.90;;;;;;5096819;28;19924;-80
2021/05/18 17:31:52;;;;;;;;;;;14.40;99.00;;;;;;5096676;28;19920;-80
2021/05/18 17:34:20;;;;;;;;;;;14.40;99.40;;;;;;5096746;28;19931;-80
2021/05/18 17:36:48;;;;;;;;;;;14.40;98.90;;;;;;5096687;28;19928;-80
2021/05/18 17:39:14;;;;;;;;;;;14.30;98.50;;;;;;5096658;28;19924;-81
2021/05/18 17:41:40;;;;;;;;;;;14.40;94.30;;;;;;5096573;28;19920;-81
2021/05/18 17:44:07;;;;;;;;;;;14.40;97.00;;;;;;5096484;28;19920;-79
2021/05/18 17:46:34;;;;;;;;;;;14.40;96.80;;;;;;5096685;28;19920;-81
2021/05/18 17:49:01;;;;;;;;;;;14.40;98.20;;;;;;5096450;28;19920;-78
2021/05/18 17:51:28;;;;;;;;;;;14.40;99.40;;;;;;5096303;28;19927;-80
2021/05/18 17:53:54;;;;;;;;;;;14.40;97.30;;;;;;5095840;28;19920;-80
2021/05/18 17:56:21;;;;;;;;;;;14.40;98.70;;;;;;5096559;28;19920;-79
2021/05/18 17:58:47;;;;;;;;;;;14.40;98.30;;;;;;5096481;28;19957;-79
2021/05/18 18:01:13;;;;;;;;;;;14.40;98.50;;;;;;5096408;28;19920;-80
2021/05/18 18:03:40;;;;;;;;;;;14.30;99.50;;;;;;5096212;28;19920;-79
2021/05/18 18:06:06;;;;;;;;;;;14.20;99.00;;;;;;5096112;28;20248;-79
2021/05/18 18:08:39;;;;;;;;;;;14.20;99.90;;;;;;5096107;28;20380;-80
2021/05/18 18:11:05;;;;;;;;;;;14.20;99.90;;;;;;5096118;28;19931;-81
2021/05/18 18:13:32;;;;;;;;;;;14.10;99.10;;;;;;5096318;28;19920;-81
2021/05/18 18:16:02;;;;;;;;;;;14.00;99.90;;;;;;5096003;28;19927;-81
2021/05/18 18:18:28;;;;;;;;;;;13.90;99.90;;;;;;5095962;28;20335;-72
2021/05/18 18:20:54;;;;;;;;;;;13.90;99.90;;;;;;5095849;28;19928;-72
2021/05/18 18:23:21;;;;;;;;;;;13.90;99.90;;;;;;5096053;28;19927;-72
2021/05/18 18:25:48;;;;;;;;;;;13.80;99.90;;;;;;5095660;28;20023;-73
2021/05/18 18:28:17;;;;;;;;;;;13.80;99.90;;;;;;5094753;28;20256;-72
2021/05/18 18:30:43;;;;;;;;;;;13.70;99.90;;;;;;5095479;28;20267;-73
2021/05/18 18:33:10;;;;;;;;;;;13.70;99.90;;;;;;5095606;28;19920;-73
2021/05/18 18:35:36;;;;;;;;;;;13.70;99.90;;;;;;5095543;28;19993;-72
2021/05/18 18:38:07;;;;;;;;;;;13.70;99.90;;;;;;5095777;28;19920;-72
2021/05/18 18:40:33;;;;;;;;;;;13.60;99.90;;;;;;5095792;28;20248;-72